Portada
METAR-TAF:

METAR-TAF

Aeroports :

Wendover Airport

Wendover, Utah, Estats Units d'Amèrica

latitud: 40-44N, longitud: 114-02W, altitud: 1291 m

Observació

L'informe es va fer fa 16 minuts, a les 08:56 UTC
Vent 4 kt del Oest
Temperatura 1°C
Humitat 86%
Pressió 1023 hPa
Visibilitat: 4.8 km
Cel cobert a una alçada de 300 ft
boirina

METAR: KENV 260856Z AUTO 28004KT 3SM BR OVC003 01/M01 A3020 RMK AO2 SLP247 T00061006 58007 FZRANO

Hora: 02:12 (09:12 UTC)

Pronòstic

L'informe es va fer fa 3 hores i 28 minuts, a les 05:44 UTC
Pronòstic vàlid del 26 a les 06 UTC al 27 a les 06 UTC
Vent 4 kt amb direcció variable
Visibilitat: 1.6 km
Cel cobert a una alçada de 400 ft
boirina
A partir de les 26 a les 1700 UTC
Vent 4 kt amb direcció variable
Visibilitat: 10 km
Núvols disperses a una alçada de 2000 ft
Cel ennuvolat a una alçada de 4000 ft

TAF: KENV 260544Z 2606/2706 VRB04KT 1SM BR OVC004 FM261700 VRB04KT P6SM SCT020 BKN040

Observacions i pronòstics meteorològics de més de 4000 aeroports (METAR i TAF).

Les estacions disponibles són els punts grocs i vermells al mapa.

Posi el ratolí al punt desitjat per veure el nom de l'estació.

Feu clic per veure les observacions i els pronòstics meteorològics.

Per canviar el mapa: feu clic els botons verds amb una creu de color negre per apropar; al botó verd amb un guió per allunyar la imatge; o en les fletxes verdes per a mapes adjacents.


METAR-TAF: